Relevés horaires Koksijde (Belgique)


Relevés horaires à Koksijde - Vendredi 12 Avr. 2024
Heure UTC1 Température [°C] Vent [km/h] Hum. [%] Pres.4 [hPa] Visi. [Km] Nébu. [octa] Préc.5 [mm] Cond.
2m. Res. Ros. Dir.2 Vit. Moy. Raf.3
23:00 12.5 12.5 9.9 NNO 1.9 -- 5.6 84 1028.4(-0.2/3h) 20 -- -- --
22:00 12.6 12.6 9.9 SO 3.7 -- 7.4 84 1028.2(-0.1/3h) 20 -- -- --
21:00 13.3 13.3 10.3 SO 3.7 -- 11.1 82 1028.5(0.0/3h) 20 -- -- --
20:00 14.1 14.1 10.6 SSO 3.7 -- 9.3 79 1028.5(-0.4/3h) 20 -- -- --
19:00 15.3 15.3 11.0 SSO 5.6 -- 11.1 76 1028.5(-0.8/3h) 20 -- -- --
18:00 16.7 16.7 11.5 SSO 5.6 -- 22.2 71 1028.5(-1.0/3h) 20 -- -- --
17:00 18.3 18.3 10.9 SO 9.3 -- 16.7 62 1029(-1.1/3h) 20 -- -- --
16:00 19.1 19.1 11.3 SO 11.1 -- 18.5 61 1029.2(-1.2/3h) 20 -- -- --
15:00 19.3 19.3 11.0 OSO 11.1 -- 22.2 59 1029.5(-1.1/3h) 20 -- -- --
14:00 19.2 19.2 11.0 OSO 13.0 -- 20.4 59 1030.2(-1.1/3h) 20 7/8 -- --
13:00 19.2 19.2 11.0 OSO 13.0 -- 22.2 59 1030.5(-0.9/3h) 20 7/8 -- --
12:00 19.3 19.3 12.6 OSO 13.0 -- 20.4 65 1030.7(-0.6/3h) 20 7/8 -- --
11:00 18.2 18.2 12.3 SO 11.1 -- 20.4 68 1031.2(0.2/3h) 20 7/8 -- --
10:00 17.5 17.5 11.9 OSO 11.1 -- 16.7 70 1031.4(0.3/3h) 20 5/8 -- --
09:00 16.3 16.2 11.6 SO 9.3 -- 14.8 74 1031.4(0.4/3h) 20 3/8 -- --
08:00 14.9 14.9 11.6 SO 7.4 -- 13.0 81 1031(0.3/3h) 18 3/8 -- --
07:00 13.1 13.1 11.9 SSO 5.6 -- 9.3 92 1031(0.2/3h) 15 3/8 -- --
06:00 10.6 10.6 10.4 NNO 1.9 -- 14.8 99 1030.9(-0.1/3h) 10 6/8 -- --
05:00 10.1 10.1 9.9 S 3.7 -- 5.6 99 1030.7(-0.2/3h) 10 6/8 -- --
04:00 10.6 10.6 10.3 S 3.7 -- 9.3 98 1030.7(-0.4/3h) 6 -- -- --
03:00 11.1 10.8 10.5 SSO 5.6 -- 14.8 96 1031(-0.9/3h) 9 -- -- --
02:00 11.6 11.4 10.9 SSO 5.6 -- 9.3 95 1031(-1.2/3h) 11 -- -- --
01:00 11.8 11.6 11.1 SSO 5.6 -- 14.8 95 1031.2(-0.8/3h) 11 -- -- --
00:00 12.8 12.4 11.7 SO 7.4 -- 14.8 93 1031.9(-0.1/3h) 15 -- -- --

1 Coordinated Universal Time. Actuellement il est 20:00 locale et 18:00 UTC.

2 Le vent souffle depuis la direction indiquée vers la direction oposée.

3 Les rafales max. sont disponible 40 min après l'heure du relevé.

4 Pour les stations d'altitude (plus de 600m) le géopotentiel du niveau le plus proche de la pression obligatoire est indiqué.

5 Les stations disposant d'un diffuseur peuvent indiquer "trace". Cela signifie que des précipitations ont touchés le sol mais que la quantité est inférieure à 0.1 mm.

Récapitulatif de la journée
Température [°C] Vent [km/h] Ensoleillement4 [h] Precipitations totale5 [mm] Pression [Hpa]
Min1 Max.2 Moy.3 Max. Min Max.
10.1 20.2 0 22.2 0 h 0 min 0 1028.2 1031.9

1 Température minimale relevée entre 18:00 UTC la veille et 18:00 UTC le jour donné.

2 Température maximale relevée entre 06:00 UTC le jour donné et 06:00 UTC le lendemain.

3 Vent moyen de la journée basé sur les relevés horaires.

4 Ensoleillement en heures relevé entre 06:00 UTC la veille et 06:00 UTC le jour donné.

5 Précipitations totales tombées entre 06:00 UTC la jour donné et 06:00 UTC le lendemain.

Graphiques horaires